»·PEaware :: INDIE14 KMRY-KSFO

INDIE14 :: KMRY-KSFO

FLIGHT INFORMATION

Flight Status: Arrived
Operator: Unknown
More flights by this operator :: More flights under this callsign
Pilot: Indie I. (23335)
Aircraft: BEECH AIRCRAFT T-6A TEXAN
(TEX2)
More flights by this aircraft type
Origin: KMRY Monterey Peninsula
United States
Destination: KSFO San Francisco Intl
United States
More flights between these airports :: More routes between these airports
Route: MRY5 SHOEY OSI
File this flight plan on PilotEdge
Remarks: +CW / ILS 28R SFO
Altitude:
(Current/Filed)
6,000ft
Speed:
(Current/Filed)
200kts
Departed: 01-Oct-19 06:59 AM
Arrived: 01-Oct-19 07:26 AM
Distance/Time
Traveled:
67nm/0:27
Distance/Time
To Go:
Arrived

Flight Plot

Page will automatically refresh every two minutes.

Flight plan parsing failed; only flown route is shown


Map Options




Map Legend


Flown Route
Filed Route
Departure Airport
Arrival Airport
Navaid (VOR, NDB)
Fix

Horizontal Profiles

Position Reports

Time Latitude Longitude Heading Altitude Ground
Speed
01-Oct-19 06:35 36.586869 -121.849435 186 262ft 0kts
01-Oct-19 06:36 36.586854 -121.849437 184 262ft 0kts
01-Oct-19 06:37 36.586840 -121.849438 181 262ft 0kts
01-Oct-19 06:38 36.586825 -121.849438 178 262ft 0kts
01-Oct-19 06:39 36.586810 -121.849438 176 262ft 0kts
01-Oct-19 06:40 36.586805 -121.849437 175 262ft 0kts
01-Oct-19 06:41 36.586801 -121.849437 175 262ft 0kts
01-Oct-19 06:42 36.586795 -121.849436 176 262ft 0kts
01-Oct-19 06:43 36.587504 -121.850917 204 262ft 0kts
01-Oct-19 06:44 36.587500 -121.850919 204 262ft 0kts
01-Oct-19 06:45 36.587497 -121.850921 204 262ft 0kts
01-Oct-19 06:46 36.587491 -121.850924 203 262ft 0kts
01-Oct-19 06:47 36.587488 -121.850926 203 262ft 0kts
01-Oct-19 06:48 36.587484 -121.850928 203 262ft 0kts
01-Oct-19 06:49 36.587481 -121.850930 203 262ft 0kts
01-Oct-19 06:51 36.587477 -121.850932 203 262ft 0kts
01-Oct-19 06:52 36.587474 -121.850934 203 262ft 0kts
01-Oct-19 06:53 36.587941 -121.850596 61 262ft 12kts
01-Oct-19 06:54 36.586291 -121.845574 115 262ft 0kts
01-Oct-19 06:55 36.584716 -121.840894 115 262ft 19kts
01-Oct-19 06:56 36.582650 -121.835094 107 262ft 0kts
01-Oct-19 06:57 36.582803 -121.834144 59 262ft 0kts
01-Oct-19 06:58 36.582827 -121.834094 59 262ft 3kts
01-Oct-19 06:59 36.585590 -121.840286 292 266ft 111kts
01-Oct-19 07:00 36.610970 -121.890998 317 1187ft 209kts
01-Oct-19 07:01 36.661686 -121.913207 341 3687ft 196kts
01-Oct-19 07:02 36.714242 -121.933627 344 5938ft 202kts
01-Oct-19 07:03 36.771115 -121.955114 341 6076ft 236kts
01-Oct-19 07:04 36.832829 -121.976214 349 5736ft 229kts
01-Oct-19 07:05 36.872836 -121.989692 335 6544ft 199kts
01-Oct-19 07:06 36.928807 -122.023712 333 5970ft 227kts
01-Oct-19 07:07 36.981152 -122.056418 333 5998ft 223kts
01-Oct-19 07:08 37.036202 -122.089966 334 6022ft 217kts
01-Oct-19 07:08 37.037253 -122.090594 334 6027ft 217kts
01-Oct-19 07:10 37.038324 -122.091235 334 6028ft 217kts
01-Oct-19 07:11 37.093416 -122.124139 334 5977ft 216kts
01-Oct-19 07:11 37.138541 -122.150811 334 6028ft 218kts
01-Oct-19 07:13 37.203879 -122.190033 334 5447ft 237kts
01-Oct-19 07:13 37.248503 -122.214666 333 6128ft 211kts
01-Oct-19 07:14 37.309208 -122.219703 22 3930ft 253kts
01-Oct-19 07:16 37.373624 -122.182990 25 3710ft 197kts
01-Oct-19 07:16 37.414228 -122.160919 20 3660ft 213kts
01-Oct-19 07:17 37.468043 -122.131501 24 3098ft 162kts
01-Oct-19 07:18 37.503086 -122.130870 322 2502ft 131kts
01-Oct-19 07:19 37.532175 -122.160533 299 2885ft 139kts
01-Oct-19 07:20 37.551746 -122.208250 296 2347ft 107kts
01-Oct-19 07:21 37.567466 -122.246826 297 1489ft 138kts
01-Oct-19 07:22 37.584948 -122.289198 296 1185ft 129kts
01-Oct-19 07:23 37.602528 -122.331159 297 495ft 122kts
01-Oct-19 07:24 37.617914 -122.367811 297 18ft 103kts
01-Oct-19 07:25 37.622558 -122.375352 357 18ft 2kts

Navigation Log

Ident Type
Flight plan parsing failed, navigation log unavailable